x

Delaware Bay 26 Nm Southeast Of Cape May, Nj (44009) Wave Buoy

12:50am - Sat 29th Apr 2017 All times are EDT. -4 hours from GMT.

  • Sig Wave height 3.6ft
  • Swell Direction
  • Peak Period 8s
  • Average Period 6s
  • Wind
    13mph, 16mph gusts
  • Sea Temp 55°f
  • Air Temp 58°f
  • Sea Pressure 1018.6mb
  • Delaware Bay 26 Nm Southeast Of Cape May, Nj
  • Delaware Bay 26 Nm Southeast Of Cape May, Nj

More Historic Weather Station data

Upgrade to MSW Pro to gain access to the past 30 days of data for over 8000 Wavebouys and Weather Stations around the globe.

Join Pro

Comparision Forecast

View Surf forecast
   
Sat 04/29 12:50am 3.5ft 8s 6s 13 16 mph 1018.6mb 55f 58f
Fri 04/28 11:50pm 4ft 8s 6s 11
mph
1018.8mb 55f 57f
10:50pm 4ft 6s 6s 9 11 mph 1019.1mb 55f 57f
9:50pm 4.5ft 8s 6s 9 11 mph 1019.5mb 55f 57f
8:50pm 4.5ft 8s 6s 11 13 mph 1018.7mb 55f 57f
7:50pm 4.5ft 8s 6s 9 11 mph 1018.6mb 55f 56f
6:50pm 4ft 8s 6s 7 9 mph 1018.5mb 56f 58f
5:50pm 4.5ft 8s 6s 7 9 mph 1018mb 55f 58f
4:50pm 4ft 8s 6s 9
mph
1018.2mb 55f 57f
3:50pm 4ft 8s 6s 11 13 mph 1018mb 55f 57f
2:50pm 4ft 8s 6s 11 13 mph 1018.5mb 55f 57f
1:50pm 4ft 9s 6s 9
mph
1018.3mb 55f 58f
12:50pm 4ft 9s 6s 9 11 mph 1018.5mb 54f 57f
11:50am 4ft 8s 6s 11 13 mph 1018.3mb 53f 57f
10:50am 4ft 9s 6s 11 13 mph 1018.2mb 53f 57f
9:50am 4.5ft 9s 6s 11 13 mph 1017.7mb 53f 56f
7:50am 4.5ft 9s  -  11 13 mph 1016.3mb 52f 56f
6:50am 5ft 9s 6s 9 11 mph 1015.5mb 52f 56f
5:50am 4.5ft 8s 6s 13 16 mph 1014.1mb 52f 57f
4:50am 5ft 9s 6s 13 16 mph 1013.7mb 52f 57f
3:50am 5ft 9s 6s 13 16 mph 1013.1mb 52f 56f
2:50am 4.5ft 9s 6s 13 16 mph 1013.1mb 52f 56f
1:50am 5ft 10s 6s 13 16 mph 1013.1mb 52f 57f
12:50am 4.5ft 10s 6s 16 18 mph 1013mb 52f 57f
Thu 04/27 11:50pm 4.5ft 9s 6s 16
mph
1012.4mb 52f 57f
10:50pm 4.5ft 10s 6s 16 20 mph 1012mb 52f 58f
9:50pm 4.5ft 8s 5s 18 20 mph 1012mb 52f 58f
7:50pm 4ft 8s 5s 16 18 mph 1011.5mb 52f 57f
6:50pm 4.5ft 9s 6s 16 18 mph 1011.4mb 52f 57f
5:50pm 4.5ft 9s 6s 16 18 mph 1011.4mb 52f 57f
4:50pm 4.5ft 9s 7s 16 18 mph 1011.4mb 52f 58f
3:50pm 4.5ft 9s 7s 11 13 mph 1011.7mb 53f 56f
2:50pm 4.5ft 10s 7s 9 11 mph 1012.1mb 53f 56f
1:50pm 4.5ft 10s 7s 9
mph
1012.5mb 53f 55f
12:50pm 4.5ft 10s 7s 9 11 mph 1013mb 52f 55f
11:50am 4.5ft 11s 7s 9 11 mph 1013.2mb 52f 55f
10:50am 4ft 10s 7s 9 11 mph 1012.8mb 52f 55f
9:50am 4.5ft 10s 7s 11
mph
1012.9mb 51f 54f
8:50am 5ft 10s 7s 7
mph
1013.3mb 51f 53f
7:50am 5ft 9s 7s 7 9 mph 1012.8mb 51f 53f
6:50am 5.5ft 10s 7s 7 9 mph 1012.7mb 51f 53f
5:50am 5.5ft 10s 7s 7
mph
1012mb 51f 53f
4:50am 5ft 9s 7s 4
mph
1011.9mb 51f 52f
3:50am 5ft 10s 7s 4
mph
1011.9mb 51f 52f
2:50am 5ft 10s 7s 4
mph
1011.9mb 51f 52f
1:50am 5ft 10s 7s 4
mph
1011.9mb 51f 52f
12:50am 5ft 10s 7s 2 4 mph 1012mb 51f 52f
Wed 04/26 11:50pm 5ft 10s 7s 4
mph
1012mb 51f 53f
10:50pm 6ft 11s 7s 7
mph
1011.7mb 51f 53f
9:50pm 6ft 11s 7s 7
mph
1011.4mb 51f 53f
7:50pm 6ft 10s 7s 4 7 mph 1010.1mb 51f 52f
6:50pm 6.5ft 11s 7s 2 4 mph 1009.7mb 51f 52f
5:50pm 6ft 10s 7s 2 4 mph 1009.7mb 51f 52f
4:50pm 6.5ft 11s 7s 2
mph
1009.1mb 51f 52f
3:50pm 7ft 10s 7s 4
mph
1008.7mb 52f 52f
2:50pm 6.5ft 11s 7s 7 9 mph 1008.5mb 52f 52f
1:50pm 7ft 10s 7s 9 11 mph 1008.6mb 52f 52f
12:50pm 7ft 10s 7s 9 11 mph 1008.5mb 52f 51f
11:50am 7ft 10s 7s 7 9 mph 1008mb 52f 51f
10:50am 7ft 10s 7s 7 9 mph 1007.4mb 51f 51f
9:50am 7ft 10s 7s 7 9 mph 1006.6mb 51f 52f
8:50am 7.5ft 11s 7s 7 9 mph 1006.1mb 51f 52f
7:50am 7ft 9s 7s 4 7 mph 1005.7mb 51f 53f
6:50am 8.5ft 10s 7s 4 7 mph 1005mb 51f 54f
5:50am 9ft 11s 7s 4 7 mph 1004.2mb 51f 54f
4:50am 9ft 10s 7s 4 7 mph 1003.9mb 51f 53f
3:50am 8.5ft 11s 7s 11 13 mph 1003.8mb 51f 53f
2:50am 8.5ft 11s 7s 7 9 mph 1004.3mb 51f 53f
1:50am 8ft 11s 7s 4 9 mph 1004.5mb 51f 54f
12:50am 8.5ft 10s 7s 11 13 mph 1004.6mb 51f 55f
Tue 04/25 11:50pm 7.5ft 11s 7s 11 16 mph 1004.7mb 51f 55f
10:50pm 9ft 11s 7s 13 16 mph 1004.7mb 51f 56f
9:50pm 9ft 11s 7s 11 13 mph 1004.6mb 51f 54f
8:50pm 8ft 12s 6s 16 18 mph 1004.5mb 51f 55f
7:50pm 9ft 11s 7s 16 18 mph 1004.5mb 51f 55f
6:50pm 9ft 11s 7s 20 27 mph 1003.3mb 51f 58f
5:50pm 10ft 10s 7s 18 20 mph 1005.3mb 51f 56f
4:50pm 10ft 10s 7s 18 20 mph 1005.7mb 51f 55f
3:50pm 9.5ft 10s 6s 16 20 mph 1006.5mb 51f 55f
2:50pm 10ft 11s 6s 16 22 mph 1007.4mb 51f 55f
1:50pm 9ft 11s 6s 25 29 mph 1007.2mb 51f 55f
12:50pm 8ft 11s 6s 25 29 mph 1007.9mb 51f 55f
11:50am 9ft 8s 6s 27 34 mph 1008.5mb 51f 55f
10:50am 7.5ft 9s 6s 25 31 mph 1009.3mb 51f 55f
9:50am 7ft 8s 6s 22 29 mph 1010.2mb 51f 56f
8:50am 6.5ft 9s 6s 20 22 mph 1010.8mb 51f 54f
7:50am 7ft 9s 6s 18 22 mph 1011.1mb 51f 56f
6:50am 6ft 8s  -  22 25 mph 1010.8mb 51f 56f